Time;durP1;ratioP1;P1;durP2;ratioP2;P2;SDS_P1;SDS_P2;PMS_P1;PMS_P2;Temp;Humidity;BMP_temperature;BMP_pressure;BME280_temperature;BME280_humidity;BME280_pressure;Samples;Min_cycle;Max_cycle;Signal;HPM_P1;HPM_P2
2023/08/09 00:01:28;;;;;;;43.07;20.20;;;;;;;;;;5060479;28;20054;-60
2023/08/09 00:03:54;;;;;;;43.23;19.70;;;;;;;;;;5067621;28;20569;-60
2023/08/09 00:06:20;;;;;;;40.93;19.40;;;;;;;;;;5067050;28;20045;-60
2023/08/09 00:08:46;;;;;;;38.60;21.27;;;;;;;;;;5067242;28;20043;-60
2023/08/09 00:11:12;;;;;;;49.17;21.80;;;;;;;;;;5068027;28;20049;-60
2023/08/09 00:13:38;;;;;;;40.77;20.77;;;;;;;;;;5067904;28;20613;-60
2023/08/09 00:16:04;;;;;;;54.30;23.27;;;;;;;;;;5067565;28;20167;-60
2023/08/09 00:18:30;;;;;;;58.20;24.67;;;;;;;;;;5067717;28;20083;-60
2023/08/09 00:20:56;;;;;;;61.13;25.93;;;;;;;;;;5067259;28;20129;-60
2023/08/09 00:23:22;;;;;;;63.40;27.17;;;;;;;;;;5057802;28;20049;-61
2023/08/09 00:25:48;;;;;;;71.03;29.53;;;;;;;;;;5051104;28;20044;-60
2023/08/09 00:28:14;;;;;;;78.83;31.53;;;;;;;;;;5051274;28;20044;-60
2023/08/09 00:30:40;;;;;;;76.17;30.57;;;;;;;;;;5052042;28;20100;-60
2023/08/09 00:33:07;;;;;;;76.57;30.07;;;;;;;;;;5070230;28;20051;-60
2023/08/09 00:35:34;;;;;;;66.37;29.47;;;;;;;;;;5070212;28;20517;-60
2023/08/09 00:38:00;;;;;;;66.00;29.53;;;;;;;;;;5071289;28;20051;-60
2023/08/09 00:40:26;;;;;;;61.90;29.57;;;;;;;;;;5070880;28;20049;-60
2023/08/09 00:42:52;;;;;;;71.60;31.63;;;;;;;;;;5071238;28;20047;-60
2023/08/09 00:45:18;;;;;;;73.50;32.30;;;;;;;;;;5070460;28;20037;-61
2023/08/09 00:47:45;;;;;;;71.10;31.90;;;;;;;;;;5070876;28;20052;-60
2023/08/09 00:50:11;;;;;;;72.50;31.30;;;;;;;;;;5070927;28;20044;-60
2023/08/09 00:52:37;;;;;;;77.33;31.60;;;;;;;;;;5070765;28;20317;-60
2023/08/09 00:55:06;;;;;;;74.17;32.27;;;;;;;;;;5070390;28;20499;-60
2023/08/09 00:57:32;;;;;;;66.67;32.67;;;;;;;;;;5069971;28;20043;-60
2023/08/09 00:59:59;;;;;;;71.43;31.33;;;;;;;;;;5061698;28;20033;-60
2023/08/09 01:02:25;;;;;;;67.43;32.37;;;;;;;;;;5050767;28;20060;-61
2023/08/09 01:04:51;;;;;;;87.17;33.40;;;;;;;;;;5050354;28;20041;-60
2023/08/09 01:07:37;;;;;;;72.17;31.53;;;;;;;;;;5050720;28;20499;-60
2023/08/09 01:10:03;;;;;;;72.20;30.70;;;;;;;;;;5050607;28;20514;-60
2023/08/09 01:12:30;;;;;;;72.20;32.77;;;;;;;;;;5050475;28;20041;-60
2023/08/09 01:14:59;;;;;;;74.53;32.60;;;;;;;;;;5054073;28;20055;-60
2023/08/09 01:17:27;;;;;;;80.47;33.47;;;;;;;;;;5050253;28;20136;-60
2023/08/09 01:19:57;;;;;;;83.20;33.63;;;;;;;;;;5050560;28;20050;-60
2023/08/09 01:22:26;;;;;;;85.23;37.30;;;;;;;;;;5050508;28;20056;-60
2023/08/09 01:24:53;;;;;;;71.00;31.57;;;;;;;;;;5049606;28;20041;-60
2023/08/09 01:27:19;;;;;;;77.53;34.33;;;;;;;;;;5063402;28;20052;-60
2023/08/09 01:29:45;;;;;;;60.33;28.87;;;;;;;;;;5069794;28;20502;-60
2023/08/09 01:32:11;;;;;;;71.27;32.20;;;;;;;;;;5070095;28;20056;-61
2023/08/09 01:34:37;;;;;;;77.47;33.80;;;;;;;;;;5070099;28;20045;-60
2023/08/09 01:37:10;;;;;;;72.87;33.50;;;;;;;;;;5067921;28;20131;-60
2023/08/09 01:39:37;;;;;;;78.70;34.33;;;;;;;;;;5049776;28;20045;-60
2023/08/09 01:42:04;;;;;;;81.57;33.13;;;;;;;;;;5049705;28;20048;-61
2023/08/09 01:44:30;;;;;;;101.07;37.50;;;;;;;;;;5050122;28;20048;-60
2023/08/09 01:46:56;;;;;;;108.70;40.37;;;;;;;;;;5049672;28;20056;-61
2023/08/09 01:49:23;;;;;;;104.30;38.53;;;;;;;;;;5050149;28;20049;-60
2023/08/09 01:51:51;;;;;;;126.13;41.53;;;;;;;;;;5049731;28;20045;-60
2023/08/09 01:54:17;;;;;;;117.27;42.33;;;;;;;;;;5059989;28;20516;-60
2023/08/09 01:56:44;;;;;;;117.40;42.27;;;;;;;;;;5069407;28;20048;-60
2023/08/09 01:59:10;;;;;;;90.40;35.70;;;;;;;;;;5069921;28;20044;-61
2023/08/09 02:01:36;;;;;;;92.83;36.37;;;;;;;;;;5069390;28;20055;-60
2023/08/09 02:04:05;;;;;;;102.80;39.83;;;;;;;;;;5069704;28;20049;-60
2023/08/09 02:06:32;;;;;;;82.97;37.63;;;;;;;;;;5061113;28;20465;-60
2023/08/09 02:08:58;;;;;;;106.53;43.37;;;;;;;;;;5047899;28;20077;-60
2023/08/09 02:11:24;;;;;;;115.80;43.00;;;;;;;;;;5049457;28;20037;-61
2023/08/09 02:13:50;;;;;;;108.83;39.67;;;;;;;;;;5049072;28;20043;-60
2023/08/09 02:16:16;;;;;;;126.83;43.90;;;;;;;;;;5049258;28;20077;-60
2023/08/09 02:18:42;;;;;;;141.33;45.90;;;;;;;;;;5049452;28;20049;-60
2023/08/09 02:21:09;;;;;;;105.80;37.83;;;;;;;;;;5054106;28;20167;-60
2023/08/09 02:23:35;;;;;;;218.40;51.10;;;;;;;;;;5067794;28;20514;-61
2023/08/09 02:26:01;;;;;;;218.30;50.37;;;;;;;;;;5068006;28;20049;-60
2023/08/09 02:28:27;;;;;;;281.97;57.97;;;;;;;;;;5050875;28;20528;-60
2023/08/09 02:30:53;;;;;;;235.00;54.30;;;;;;;;;;5048397;28;20127;-60
2023/08/09 02:33:19;;;;;;;288.87;58.57;;;;;;;;;;5049378;28;20513;-60
2023/08/09 02:35:54;;;;;;;312.03;61.23;;;;;;;;;;5049009;28;20041;-60
2023/08/09 02:38:21;;;;;;;277.00;58.87;;;;;;;;;;5048851;28;20041;-60
2023/08/09 02:40:49;;;;;;;379.67;70.00;;;;;;;;;;5048740;28;20045;-61
2023/08/09 02:43:15;;;;;;;316.07;62.53;;;;;;;;;;5048375;28;20047;-60
2023/08/09 02:45:41;;;;;;;313.53;62.00;;;;;;;;;;5051288;28;20042;-60
2023/08/09 02:48:08;;;;;;;170.27;49.13;;;;;;;;;;5057846;28;20056;-61
2023/08/09 02:50:34;;;;;;;229.37;57.07;;;;;;;;;;5058976;28;20566;-60
2023/08/09 02:53:01;;;;;;;275.43;56.57;;;;;;;;;;5047543;28;20061;-60
2023/08/09 02:55:28;;;;;;;287.10;58.37;;;;;;;;;;5048725;28;20064;-60
2023/08/09 02:57:54;;;;;;;271.60;52.50;;;;;;;;;;5048660;28;20045;-61
2023/08/09 03:00:20;;;;;;;262.10;58.83;;;;;;;;;;5048409;28;20136;-61
2023/08/09 03:02:46;;;;;;;208.43;52.20;;;;;;;;;;5048027;28;20128;-60
2023/08/09 03:05:12;;;;;;;338.13;62.93;;;;;;;;;;5048275;28;20589;-60
2023/08/09 03:07:39;;;;;;;269.93;58.00;;;;;;;;;;5048550;28;20053;-60
2023/08/09 03:10:05;;;;;;;262.27;53.60;;;;;;;;;;5047909;28;20178;-60
2023/08/09 03:12:31;;;;;;;244.57;50.77;;;;;;;;;;5048316;28;20080;-60
2023/08/09 03:14:57;;;;;;;357.47;62.50;;;;;;;;;;5048148;28;20045;-60
2023/08/09 03:17:23;;;;;;;269.83;57.37;;;;;;;;;;5048142;28;20055;-60
2023/08/09 03:19:50;;;;;;;336.03;62.73;;;;;;;;;;5061728;28;20045;-60
2023/08/09 03:22:16;;;;;;;209.07;47.63;;;;;;;;;;5068319;28;20063;-60
2023/08/09 03:24:43;;;;;;;307.17;57.87;;;;;;;;;;5067802;28;20460;-60
2023/08/09 03:27:09;;;;;;;363.60;62.37;;;;;;;;;;5067723;28;20532;-60
2023/08/09 03:29:35;;;;;;;307.13;53.23;;;;;;;;;;5067925;28;20048;-60
2023/08/09 03:32:01;;;;;;;286.07;56.67;;;;;;;;;;5068217;28;20053;-60
2023/08/09 03:34:27;;;;;;;363.63;64.07;;;;;;;;;;5067643;28;20044;-60
2023/08/09 03:36:53;;;;;;;330.47;60.63;;;;;;;;;;5068249;28;20518;-60
2023/08/09 03:39:21;;;;;;;211.43;45.93;;;;;;;;;;5068235;28;20046;-60
2023/08/09 03:41:47;;;;;;;194.47;48.53;;;;;;;;;;5068301;28;20060;-60
2023/08/09 03:44:13;;;;;;;270.50;55.67;;;;;;;;;;5068160;28;20063;-60
2023/08/09 03:46:39;;;;;;;281.87;54.37;;;;;;;;;;5067193;28;20854;-60
2023/08/09 03:49:05;;;;;;;247.37;50.30;;;;;;;;;;5067338;28;20041;-61
2023/08/09 03:51:31;;;;;;;288.07;55.97;;;;;;;;;;5067936;28;20051;-60
2023/08/09 03:53:57;;;;;;;307.80;59.70;;;;;;;;;;5067929;28;20110;-60
2023/08/09 03:56:23;;;;;;;315.23;60.07;;;;;;;;;;5067743;28;20052;-61
2023/08/09 03:58:49;;;;;;;313.03;61.43;;;;;;;;;;5068325;28;20087;-61
2023/08/09 04:01:16;;;;;;;308.53;59.47;;;;;;;;;;5071946;28;20044;-60
2023/08/09 04:03:42;;;;;;;329.87;62.37;;;;;;;;;;5071885;28;20067;-60
2023/08/09 04:06:09;;;;;;;344.40;62.20;;;;;;;;;;5071692;28;20064;-60
2023/08/09 04:08:35;;;;;;;290.60;57.57;;;;;;;;;;5072027;28;20162;-60
2023/08/09 04:11:01;;;;;;;328.93;61.97;;;;;;;;;;5070995;28;20353;-60
2023/08/09 04:13:27;;;;;;;328.33;63.97;;;;;;;;;;5070685;28;20052;-61
2023/08/09 04:15:53;;;;;;;333.87;59.90;;;;;;;;;;5055188;28;20045;-60
2023/08/09 04:18:19;;;;;;;306.77;60.87;;;;;;;;;;5051407;28;20037;-60
2023/08/09 04:20:45;;;;;;;288.23;58.60;;;;;;;;;;5051714;28;20213;-61
2023/08/09 04:23:12;;;;;;;335.57;62.37;;;;;;;;;;5051467;28;20575;-60
2023/08/09 04:25:38;;;;;;;295.03;55.83;;;;;;;;;;5051402;28;20053;-61
2023/08/09 04:28:04;;;;;;;274.73;53.80;;;;;;;;;;5051055;28;20418;-60
2023/08/09 04:30:30;;;;;;;358.17;64.57;;;;;;;;;;5050581;28;20041;-61
2023/08/09 04:32:56;;;;;;;361.67;62.37;;;;;;;;;;5051318;28;20858;-61
2023/08/09 04:35:23;;;;;;;353.77;61.30;;;;;;;;;;5050373;28;20071;-60
2023/08/09 04:37:49;;;;;;;317.77;60.67;;;;;;;;;;5051304;28;20144;-61
2023/08/09 04:40:15;;;;;;;257.30;55.00;;;;;;;;;;5050946;28;20493;-61
2023/08/09 04:42:41;;;;;;;319.13;58.60;;;;;;;;;;5051337;28;20368;-61
2023/08/09 04:45:08;;;;;;;345.17;60.33;;;;;;;;;;5050061;28;20140;-60
2023/08/09 04:47:35;;;;;;;276.23;54.43;;;;;;;;;;5050259;28;20126;-61
2023/08/09 04:50:01;;;;;;;336.90;62.03;;;;;;;;;;5051068;28;20155;-60
2023/08/09 04:52:27;;;;;;;294.57;58.90;;;;;;;;;;5050668;28;20406;-61
2023/08/09 04:54:53;;;;;;;237.40;52.20;;;;;;;;;;5050485;28;20050;-60
2023/08/09 04:57:19;;;;;;;241.03;52.53;;;;;;;;;;5050390;28;20045;-61
2023/08/09 04:59:45;;;;;;;211.20;47.93;;;;;;;;;;5050728;28;20051;-62
2023/08/09 05:02:11;;;;;;;202.10;49.20;;;;;;;;;;5050726;28;20044;-61
2023/08/09 05:04:37;;;;;;;260.00;51.10;;;;;;;;;;5050021;28;20487;-61
2023/08/09 05:07:04;;;;;;;267.20;53.43;;;;;;;;;;5050773;28;20049;-61
2023/08/09 05:09:30;;;;;;;173.23;46.97;;;;;;;;;;5049557;28;20565;-62
2023/08/09 05:11:56;;;;;;;153.13;45.60;;;;;;;;;;5064058;28;20474;-60
2023/08/09 05:14:22;;;;;;;208.90;49.17;;;;;;;;;;5069712;28;20052;-61
2023/08/09 05:16:48;;;;;;;216.80;50.47;;;;;;;;;;5070503;28;20048;-60
2023/08/09 05:19:14;;;;;;;185.03;45.50;;;;;;;;;;5070400;28;20044;-61
2023/08/09 05:21:40;;;;;;;174.93;46.57;;;;;;;;;;5070457;28;20041;-61
2023/08/09 05:24:06;;;;;;;199.13;46.70;;;;;;;;;;5069724;28;20069;-61
2023/08/09 05:26:32;;;;;;;185.07;48.97;;;;;;;;;;5070066;28;20044;-60
2023/08/09 05:28:58;;;;;;;176.13;45.33;;;;;;;;;;5063531;28;20043;-61
2023/08/09 05:31:24;;;;;;;132.00;41.77;;;;;;;;;;5057255;28;20048;-60
2023/08/09 05:33:50;;;;;;;214.97;49.63;;;;;;;;;;5070650;28;20094;-60
2023/08/09 05:36:16;;;;;;;146.10;41.47;;;;;;;;;;5052093;28;20207;-60
2023/08/09 05:38:42;;;;;;;189.27;45.37;;;;;;;;;;5058631;28;20045;-60
2023/08/09 05:41:08;;;;;;;144.53;41.80;;;;;;;;;;5055805;28;20063;-60
2023/08/09 05:43:34;;;;;;;94.03;33.80;;;;;;;;;;5070060;28;20051;-60
2023/08/09 05:46:00;;;;;;;102.03;35.90;;;;;;;;;;5071113;28;20052;-60
2023/08/09 05:48:26;;;;;;;175.43;40.67;;;;;;;;;;5066864;28;20153;-61
2023/08/09 05:50:52;;;;;;;105.47;34.90;;;;;;;;;;5067178;28;20048;-60
2023/08/09 05:53:19;;;;;;;103.50;35.43;;;;;;;;;;5049018;28;20056;-60
2023/08/09 05:55:44;;;;;;;115.73;36.10;;;;;;;;;;5049031;28;20080;-60
2023/08/09 05:58:10;;;;;;;75.20;32.17;;;;;;;;;;5049208;28;20084;-60
2023/08/09 06:00:37;;;;;;;80.83;31.50;;;;;;;;;;5063761;28;20060;-60
2023/08/09 06:03:03;;;;;;;78.60;31.17;;;;;;;;;;5068065;28;20577;-60
2023/08/09 06:05:29;;;;;;;68.13;27.67;;;;;;;;;;5067361;28;20484;-60
2023/08/09 06:07:56;;;;;;;78.03;28.93;;;;;;;;;;5069038;28;20040;-60
2023/08/09 06:10:23;;;;;;;75.87;27.27;;;;;;;;;;5069240;28;20049;-60
2023/08/09 06:12:49;;;;;;;81.07;28.43;;;;;;;;;;5069145;28;20088;-60
2023/08/09 06:15:15;;;;;;;107.80;27.70;;;;;;;;;;5068223;28;20119;-60
2023/08/09 06:17:41;;;;;;;67.63;24.77;;;;;;;;;;5063774;28;20091;-60
2023/08/09 06:20:07;;;;;;;43.93;20.80;;;;;;;;;;5049123;28;20045;-61
2023/08/09 06:22:33;;;;;;;44.60;18.73;;;;;;;;;;5047464;28;20049;-60
2023/08/09 06:24:59;;;;;;;29.33;18.20;;;;;;;;;;5048837;28;20067;-60
2023/08/09 06:27:25;;;;;;;26.77;17.47;;;;;;;;;;5048942;28;20048;-60
2023/08/09 06:29:51;;;;;;;28.40;16.53;;;;;;;;;;5066044;28;20597;-61
2023/08/09 06:32:17;;;;;;;21.23;15.37;;;;;;;;;;5060349;28;20120;-60
2023/08/09 06:34:43;;;;;;;19.57;13.73;;;;;;;;;;5053073;28;20040;-60
2023/08/09 06:37:09;;;;;;;20.73;14.70;;;;;;;;;;5068735;28;20055;-60
2023/08/09 06:39:35;;;;;;;15.83;13.07;;;;;;;;;;5068684;28;20109;-60
2023/08/09 06:42:01;;;;;;;14.80;12.33;;;;;;;;;;5066460;28;20048;-61
2023/08/09 06:44:27;;;;;;;16.33;12.97;;;;;;;;;;5068175;28;20131;-60
2023/08/09 06:46:53;;;;;;;16.90;12.03;;;;;;;;;;5068526;28;20131;-60
2023/08/09 06:49:21;;;;;;;16.40;12.37;;;;;;;;;;5068328;28;20048;-61
2023/08/09 06:51:47;;;;;;;17.90;13.27;;;;;;;;;;5067844;28;20057;-61
2023/08/09 06:54:14;;;;;;;13.93;11.27;;;;;;;;;;5067197;28;20052;-61
2023/08/09 06:56:40;;;;;;;14.27;10.83;;;;;;;;;;5068505;28;20103;-62
2023/08/09 06:59:06;;;;;;;14.10;11.17;;;;;;;;;;5068010;28;20044;-61
2023/08/09 07:01:32;;;;;;;12.77;11.07;;;;;;;;;;5056419;28;20100;-62
2023/08/09 07:03:58;;;;;;;13.80;10.97;;;;;;;;;;5047879;28;20040;-62
2023/08/09 07:06:24;;;;;;;11.80;9.27;;;;;;;;;;5047793;28;20049;-59
2023/08/09 07:08:53;;;;;;;11.67;9.83;;;;;;;;;;5047789;28;20515;-59
2023/08/09 07:11:22;;;;;;;12.23;10.23;;;;;;;;;;5047494;28;20042;-59
2023/08/09 07:13:49;;;;;;;9.63;8.63;;;;;;;;;;5047992;28;20056;-60
2023/08/09 07:16:15;;;;;;;10.33;9.30;;;;;;;;;;5048001;28;20048;-61
2023/08/09 07:18:41;;;;;;;12.77;9.40;;;;;;;;;;5047879;28;20044;-61
2023/08/09 07:21:07;;;;;;;10.60;8.80;;;;;;;;;;5048045;28;20495;-61
2023/08/09 07:23:33;;;;;;;10.63;9.47;;;;;;;;;;5047899;28;20136;-61
2023/08/09 07:25:59;;;;;;;10.53;9.27;;;;;;;;;;5048073;28;20052;-59
2023/08/09 07:28:25;;;;;;;10.57;8.57;;;;;;;;;;5047676;28;20053;-61
2023/08/09 07:30:51;;;;;;;10.30;9.20;;;;;;;;;;5046816;28;20056;-59
2023/08/09 07:33:17;;;;;;;10.27;8.97;;;;;;;;;;5047435;28;20594;-61
2023/08/09 07:35:43;;;;;;;9.57;8.50;;;;;;;;;;5047883;28;20041;-61
2023/08/09 07:38:09;;;;;;;10.73;8.03;;;;;;;;;;5046664;28;20056;-61
2023/08/09 07:40:35;;;;;;;13.60;8.10;;;;;;;;;;5047086;28;20052;-60
2023/08/09 07:43:01;;;;;;;10.27;8.10;;;;;;;;;;5047448;28;20045;-61
2023/08/09 07:45:28;;;;;;;9.30;7.07;;;;;;;;;;5047816;28;20056;-61
2023/08/09 07:47:54;;;;;;;8.07;7.27;;;;;;;;;;5047480;28;21180;-60
2023/08/09 07:50:20;;;;;;;7.37;6.43;;;;;;;;;;5050298;28;20127;-60
2023/08/09 07:52:47;;;;;;;9.80;6.60;;;;;;;;;;5066844;28;20040;-61
2023/08/09 07:55:13;;;;;;;11.27;7.23;;;;;;;;;;5055639;28;20057;-60
2023/08/09 07:57:39;;;;;;;10.27;7.57;;;;;;;;;;5047491;28;20053;-60
2023/08/09 08:00:17;;;;;;;8.90;7.30;;;;;;;;;;5047014;28;20455;-61
2023/08/09 08:02:44;;;;;;;9.47;8.00;;;;;;;;;;5047481;28;20056;-60
2023/08/09 08:05:13;;;;;;;9.53;7.17;;;;;;;;;;5047520;28;20044;-60
2023/08/09 08:07:39;;;;;;;8.43;5.67;;;;;;;;;;5046998;28;20091;-60
2023/08/09 08:10:09;;;;;;;6.63;5.20;;;;;;;;;;5047642;28;20419;-61
2023/08/09 08:12:36;;;;;;;6.93;5.87;;;;;;;;;;5047567;28;20041;-61
2023/08/09 08:15:03;;;;;;;8.17;5.97;;;;;;;;;;5046621;28;20052;-61
2023/08/09 08:17:29;;;;;;;7.17;5.23;;;;;;;;;;5057157;28;20102;-61
2023/08/09 08:19:55;;;;;;;5.93;4.67;;;;;;;;;;5067435;28;20414;-60
2023/08/09 08:22:21;;;;;;;6.27;4.63;;;;;;;;;;5067092;28;20063;-60
2023/08/09 08:24:48;;;;;;;7.77;4.07;;;;;;;;;;5067532;28;20059;-61
2023/08/09 08:27:14;;;;;;;7.23;3.63;;;;;;;;;;5066773;28;20210;-60
2023/08/09 08:29:40;;;;;;;6.63;4.33;;;;;;;;;;5067482;28;20123;-61
2023/08/09 08:32:06;;;;;;;6.47;4.47;;;;;;;;;;5066538;28;20052;-60
2023/08/09 08:34:32;;;;;;;4.87;4.30;;;;;;;;;;5067432;28;20079;-60
2023/08/09 08:36:59;;;;;;;5.63;3.80;;;;;;;;;;5067505;28;20045;-61
2023/08/09 08:39:25;;;;;;;5.60;3.60;;;;;;;;;;5066451;28;20127;-61
2023/08/09 08:41:51;;;;;;;5.47;4.00;;;;;;;;;;5053656;28;20045;-61
2023/08/09 08:44:17;;;;;;;6.37;3.77;;;;;;;;;;5047059;28;20056;-61
2023/08/09 08:46:43;;;;;;;6.20;3.60;;;;;;;;;;5049985;28;20052;-61
2023/08/09 08:49:14;;;;;;;3.63;2.63;;;;;;;;;;5051114;28;20041;-61
2023/08/09 08:51:40;;;;;;;7.03;2.50;;;;;;;;;;5050695;28;20089;-61
2023/08/09 08:54:07;;;;;;;3.50;1.93;;;;;;;;;;5049885;28;20068;-61
2023/08/09 08:56:33;;;;;;;3.70;2.10;;;;;;;;;;5050684;28;20045;-61
2023/08/09 08:58:59;;;;;;;6.07;3.23;;;;;;;;;;5050491;28;20138;-61
2023/08/09 09:01:26;;;;;;;5.23;3.17;;;;;;;;;;5050576;28;20407;-61
2023/08/09 09:03:52;;;;;;;4.33;2.50;;;;;;;;;;5060345;28;20125;-61
2023/08/09 09:06:18;;;;;;;3.30;2.20;;;;;;;;;;5069420;28;20075;-61
2023/08/09 09:08:44;;;;;;;4.30;2.33;;;;;;;;;;5069059;28;20044;-61
2023/08/09 09:11:18;;;;;;;4.53;2.23;;;;;;;;;;5070229;28;20494;-61
2023/08/09 09:13:47;;;;;;;3.80;1.83;;;;;;;;;;5068284;28;20059;-61
2023/08/09 09:16:14;;;;;;;3.63;1.60;;;;;;;;;;5050403;28;20049;-59
2023/08/09 09:18:41;;;;;;;2.93;1.70;;;;;;;;;;5049906;28;20568;-60
2023/08/09 09:21:10;;;;;;;2.93;1.43;;;;;;;;;;5049981;28;20049;-59
2023/08/09 09:23:36;;;;;;;3.20;1.77;;;;;;;;;;5049986;28;20048;-59
2023/08/09 09:26:08;;;;;;;2.97;1.40;;;;;;;;;;5049547;28;20041;-60
2023/08/09 09:28:41;;;;;;;4.47;1.40;;;;;;;;;;5049641;28;20586;-59
2023/08/09 09:31:07;;;;;;;;;;;;;;;;;;5050272;28;20057;-60
2023/08/09 09:33:33;;;;;;;3.57;1.10;;;;;;;;;;5049824;28;19944;-59
2023/08/09 09:36:00;;;;;;;2.47;1.03;;;;;;;;;;5050012;28;20052;-60
2023/08/09 09:38:26;;;;;;;2.60;1.30;;;;;;;;;;5049529;28;20495;-60
2023/08/09 09:40:53;;;;;;;3.20;0.90;;;;;;;;;;5057139;28;20055;-60
2023/08/09 09:43:19;;;;;;;3.13;1.10;;;;;;;;;;5057288;28;20103;-60
2023/08/09 09:45:46;;;;;;;3.87;1.03;;;;;;;;;;5049290;28;20095;-60
2023/08/09 09:48:16;;;;;;;4.13;1.20;;;;;;;;;;5049775;28;20102;-60
2023/08/09 09:50:43;;;;;;;3.57;1.27;;;;;;;;;;5049021;28;20122;-60
2023/08/09 09:53:13;;;;;;;3.87;1.10;;;;;;;;;;5049637;28;20402;-60
2023/08/09 09:55:40;;;;;;;2.50;0.87;;;;;;;;;;5049484;28;20045;-60
2023/08/09 09:58:07;;;;;;;3.10;0.87;;;;;;;;;;5049257;28;20506;-60
2023/08/09 10:00:33;;;;;;;5.77;1.07;;;;;;;;;;5049915;28;20479;-60
2023/08/09 10:03:00;;;;;;;3.73;1.07;;;;;;;;;;5049421;28;20052;-60
2023/08/09 10:05:40;;;;;;;2.47;0.73;;;;;;;;;;5048824;28;20041;-60
2023/08/09 10:08:10;;;;;;;3.53;0.90;;;;;;;;;;5050399;28;20052;-60
2023/08/09 10:10:37;;;;;;;3.10;0.80;;;;;;;;;;5067335;28;20495;-60
2023/08/09 10:13:04;;;;;;;3.17;0.90;;;;;;;;;;5066469;28;20376;-60
2023/08/09 10:15:42;;;;;;;2.97;1.03;;;;;;;;;;5069406;28;20049;-61
2023/08/09 10:18:40;;;;;;;1.93;0.70;;;;;;;;;;5069191;28;20033;-61
2023/08/09 10:21:07;;;;;;;2.90;1.10;;;;;;;;;;5056485;28;20143;-60
2023/08/09 10:23:33;;;;;;;3.73;0.83;;;;;;;;;;5069478;28;21040;-60
2023/08/09 10:25:59;;;;;;;2.00;0.63;;;;;;;;;;5069137;28;20040;-61
2023/08/09 10:28:45;;;;;;;4.23;1.10;;;;;;;;;;5068253;28;20604;-60
2023/08/09 10:31:14;;;;;;;3.40;1.53;;;;;;;;;;5068933;28;20072;-60
2023/08/09 10:33:59;;;;;;;2.60;0.90;;;;;;;;;;5068755;28;20071;-61
2023/08/09 10:36:32;;;;;;;1.97;0.90;;;;;;;;;;5068707;28;20101;-61
2023/08/09 10:38:58;;;;;;;2.63;1.03;;;;;;;;;;5056284;28;20414;-60
2023/08/09 10:41:27;;;;;;;4.17;1.00;;;;;;;;;;5048703;28;20047;-60
2023/08/09 10:44:01;;;;;;;2.23;0.87;;;;;;;;;;5048665;28;20048;-60
2023/08/09 10:46:27;;;;;;;3.83;1.00;;;;;;;;;;5048521;28;20409;-60
2023/08/09 10:48:54;;;;;;;1.65;0.65;;;;;;;;;;5048233;28;20045;-60
2023/08/09 10:51:24;;;;;;;5.90;1.27;;;;;;;;;;5048634;28;20048;-61
2023/08/09 10:54:01;;;;;;;3.67;1.23;;;;;;;;;;5048636;28;20061;-60
2023/08/09 10:56:43;;;;;;;5.80;1.30;;;;;;;;;;5047102;28;20144;-60
2023/08/09 10:59:13;;;;;;;2.83;0.93;;;;;;;;;;5047951;28;20056;-60
2023/08/09 11:01:39;;;;;;;2.87;0.97;;;;;;;;;;5049084;28;20056;-60
2023/08/09 11:04:06;;;;;;;2.40;0.90;;;;;;;;;;5062780;28;20044;-60
2023/08/09 11:06:43;;;;;;;2.37;0.80;;;;;;;;;;5068525;28;20131;-60
2023/08/09 11:09:09;;;;;;;2.20;0.93;;;;;;;;;;5067759;28;20056;-60
2023/08/09 11:11:36;;;;;;;2.03;1.00;;;;;;;;;;5057116;28;20139;-60
2023/08/09 11:14:05;;;;;;;6.03;1.03;;;;;;;;;;5048165;28;20045;-60
2023/08/09 11:16:32;;;;;;;2.70;1.17;;;;;;;;;;5047861;28;20053;-60
2023/08/09 11:19:01;;;;;;;3.03;1.10;;;;;;;;;;5048107;28;20049;-60
2023/08/09 11:21:27;;;;;;;3.67;1.30;;;;;;;;;;5048295;28;20407;-60
2023/08/09 11:23:57;;;;;;;3.63;1.20;;;;;;;;;;5049639;28;20155;-60
2023/08/09 11:26:23;;;;;;;4.50;1.20;;;;;;;;;;5058414;28;20080;-60
2023/08/09 11:28:49;;;;;;;2.90;1.10;;;;;;;;;;5052048;28;20045;-60
2023/08/09 11:31:15;;;;;;;2.97;0.90;;;;;;;;;;5048457;28;20745;-60
2023/08/09 11:33:41;;;;;;;1.77;1.00;;;;;;;;;;5048665;28;20047;-60
2023/08/09 11:36:10;;;;;;;6.90;1.27;;;;;;;;;;5048293;28;20048;-60
2023/08/09 11:38:37;;;;;;;2.97;1.00;;;;;;;;;;5046793;28;20048;-60
2023/08/09 11:41:03;;;;;;;3.03;1.20;;;;;;;;;;5048387;28;20045;-60
2023/08/09 11:43:29;;;;;;;3.20;1.00;;;;;;;;;;5047990;28;20276;-60
2023/08/09 11:45:57;;;;;;;2.83;1.27;;;;;;;;;;5048139;28;20431;-60
2023/08/09 11:48:28;;;;;;;2.60;1.00;;;;;;;;;;5048188;28;20063;-60
2023/08/09 11:51:03;;;;;;;3.80;1.20;;;;;;;;;;5047739;28;20057;-60
2023/08/09 11:53:29;;;;;;;2.00;1.02;;;;;;;;;;5047374;28;20064;-60
2023/08/09 11:56:02;;;;;;;4.22;1.25;;;;;;;;;;5047859;28;20110;-60
2023/08/09 11:58:28;;;;;;;;;;;;;;;;;;5048711;28;20044;-60
2023/08/09 12:00:54;;;;;;;3.10;1.23;;;;;;;;;;5054545;28;19952;-60
2023/08/09 12:03:22;;;;;;;3.00;1.20;;;;;;;;;;5056640;28;20041;-61
2023/08/09 12:05:51;;;;;;;2.20;1.00;;;;;;;;;;5047809;28;20525;-60
2023/08/09 12:08:18;;;;;;;1.95;1.00;;;;;;;;;;5047443;28;20060;-60
2023/08/09 12:10:44;;;;;;;3.40;1.33;;;;;;;;;;5051723;28;20594;-61
2023/08/09 12:13:10;;;;;;;4.22;1.23;;;;;;;;;;5067623;28;20087;-61
2023/08/09 12:15:36;;;;;;;3.90;1.08;;;;;;;;;;5067612;28;20494;-61
2023/08/09 12:18:02;;;;;;;4.32;1.30;;;;;;;;;;5067809;28;20044;-61
2023/08/09 12:20:28;;;;;;;3.28;1.55;;;;;;;;;;5067164;28;20044;-61
2023/08/09 12:22:55;;;;;;;3.30;1.35;;;;;;;;;;5071624;28;20076;-60
2023/08/09 12:25:21;;;;;;;4.38;1.27;;;;;;;;;;5068746;28;20434;-62
2023/08/09 12:27:47;;;;;;;4.22;1.08;;;;;;;;;;5071345;28;20404;-63
2023/08/09 12:30:14;;;;;;;2.50;1.23;;;;;;;;;;5070696;28;20040;-60
2023/08/09 12:32:40;;;;;;;4.75;1.33;;;;;;;;;;5070682;28;20425;-59
2023/08/09 12:35:07;;;;;;;4.88;1.42;;;;;;;;;;5071474;28;20356;-60
2023/08/09 12:37:33;;;;;;;4.50;1.25;;;;;;;;;;5071125;28;20512;-60
2023/08/09 12:39:59;;;;;;;3.45;1.20;;;;;;;;;;5070948;28;20053;-60
2023/08/09 12:42:25;;;;;;;4.82;1.00;;;;;;;;;;5071062;28;20044;-60
2023/08/09 12:44:51;;;;;;;2.63;1.00;;;;;;;;;;5071106;28;20043;-59
2023/08/09 12:47:17;;;;;;;3.33;1.08;;;;;;;;;;5070899;28;20052;-60
2023/08/09 12:49:43;;;;;;;5.60;1.15;;;;;;;;;;5070924;28;20060;-60
2023/08/09 12:52:09;;;;;;;5.38;0.90;;;;;;;;;;5070917;28;20045;-60
2023/08/09 12:54:35;;;;;;;2.80;1.40;;;;;;;;;;5071117;28;20075;-60
2023/08/09 12:57:01;;;;;;;2.33;1.08;;;;;;;;;;5070699;28;20487;-60
2023/08/09 12:59:27;;;;;;;3.03;1.48;;;;;;;;;;5057553;28;20635;-60
2023/08/09 13:01:53;;;;;;;3.13;1.13;;;;;;;;;;5050828;28;20044;-60
2023/08/09 13:04:23;;;;;;;2.30;1.00;;;;;;;;;;5050592;28;20535;-59
2023/08/09 13:06:49;;;;;;;2.60;1.10;;;;;;;;;;5050688;28;20045;-59
2023/08/09 13:09:15;;;;;;;3.67;1.20;;;;;;;;;;5050211;28;20450;-59
2023/08/09 13:11:44;;;;;;;2.50;1.33;;;;;;;;;;5063861;28;20554;-60
2023/08/09 13:14:10;;;;;;;6.23;1.40;;;;;;;;;;5050397;28;20506;-59
2023/08/09 13:16:36;;;;;;;4.45;1.48;;;;;;;;;;5050131;28;20102;-60
2023/08/09 13:19:04;;;;;;;4.47;1.77;;;;;;;;;;5050485;28;20048;-62
2023/08/09 13:21:30;;;;;;;6.65;1.20;;;;;;;;;;5050694;28;20045;-62
2023/08/09 13:23:56;;;;;;;3.87;1.20;;;;;;;;;;5050119;28;20041;-62
2023/08/09 13:26:23;;;;;;;2.00;0.90;;;;;;;;;;5050275;28;20048;-62
2023/08/09 13:28:50;;;;;;;2.40;1.10;;;;;;;;;;5058257;28;20079;-62
2023/08/09 13:31:16;;;;;;;4.30;1.53;;;;;;;;;;5069827;28;20049;-62
2023/08/09 13:33:43;;;;;;;4.87;1.33;;;;;;;;;;5069855;28;20049;-62
2023/08/09 13:36:09;;;;;;;2.93;1.10;;;;;;;;;;5070154;28;20055;-62
2023/08/09 13:38:41;;;;;;;5.53;1.30;;;;;;;;;;5070080;28;20040;-62
2023/08/09 13:41:08;;;;;;;4.45;0.98;;;;;;;;;;5068840;28;20449;-62
2023/08/09 13:43:34;;;;;;;4.83;1.20;;;;;;;;;;5069341;28;20053;-62
2023/08/09 13:46:00;;;;;;;3.10;1.00;;;;;;;;;;5069835;28;20052;-62
2023/08/09 13:48:26;;;;;;;5.47;1.08;;;;;;;;;;5069850;28;20048;-62
2023/08/09 13:50:52;;;;;;;4.30;1.10;;;;;;;;;;5059466;28;20061;-62
2023/08/09 13:53:18;;;;;;;4.30;1.20;;;;;;;;;;5049994;28;20160;-63
2023/08/09 13:55:46;;;;;;;3.75;1.70;;;;;;;;;;5050374;28;20109;-62
2023/08/09 13:58:12;;;;;;;3.22;1.05;;;;;;;;;;5049501;28;20044;-60
2023/08/09 14:00:39;;;;;;;4.28;1.10;;;;;;;;;;5049835;28;20132;-60
2023/08/09 14:03:05;;;;;;;2.78;1.10;;;;;;;;;;5050014;28;20057;-60
2023/08/09 14:05:32;;;;;;;3.03;0.90;;;;;;;;;;5049715;28;20048;-60
2023/08/09 14:07:58;;;;;;;3.70;1.00;;;;;;;;;;5051206;28;20049;-60
2023/08/09 14:10:24;;;;;;;4.10;1.30;;;;;;;;;;5069880;28;20608;-60
2023/08/09 14:12:50;;;;;;;4.47;1.00;;;;;;;;;;5060042;28;20056;-60
2023/08/09 14:15:16;;;;;;;4.13;1.15;;;;;;;;;;5049382;28;20403;-62
2023/08/09 14:17:43;;;;;;;3.05;1.23;;;;;;;;;;5049959;28;20411;-60
2023/08/09 14:20:16;;;;;;;4.88;1.67;;;;;;;;;;5049314;28;20511;-60
2023/08/09 14:22:49;;;;;;;3.78;1.13;;;;;;;;;;5048760;28;20045;-60
2023/08/09 14:25:19;;;;;;;4.05;1.25;;;;;;;;;;5048983;28;20049;-61